Airfield :
LOGIN :

Register | Disclaimer

   EN    FR    IT 

 










Legend :    VFR   Marginal VFR   IFR   Intensive IFR   Very Intensive IFR
Visi :
Ceiling :
>= 8 km
>= 3000ft
5 to 8 km
1000 to 3000 ft
1500m to 5 km
500 to 1000 ft
800 to 1500m
200 to 500 ft
< 800m
< 200 ft
Symbols :   Thunderstorms  Fog  Heavy snow  Heavy precipitations  Wind > 20 kt
SIGMETs :     Misc.  Thunderstorms  Icing  Turbulence  Mountain Waves  Volcanic Ashes







- Airport Elevation : 348 ft
- IATA code : LDV
- Download approach charts


LFRJ - Landivisiau

CURRENT METAR :
  • 161930Z AUTO 25009KT 9999 FEW028 06/05 Q1009 TEMPO 29015G25KT 3000 SHRA BKN020CB

EXPIRED METARs :
  • 161900Z AUTO 28006KT 9999 FEW024 06/05 Q1009 TEMPO 29015G25KT 3000 SHRA BKN020CB
  • 161830Z AUTO 29006KT 9999 FEW018/// SCT027/// BKN035/// ///TCU 07/06 Q1009 TEMPO 29015G25KT 3000 SHRA BKN020CB
  • 161800Z AUTO 28012G24KT 9000 RA SCT021/// BKN031/// BKN056/// ///TCU 07/06 Q1009 TEMPO 3000 SHRA BKN020CB
  • 161730Z AUTO 28006KT 9999 FEW021/// SCT027/// BKN050/// ///CB 08/06 Q1009 TEMPO 29015G25KT 3000 SHRA
  • 161700Z AUTO 28005KT 9999 SCT021/// BKN047/// BKN054/// ///TCU 08/07 Q1008 BECMG SCT030

TAF TAF LFRJ
Valid from the 16 at 18:00 until the 17 at 03:00 UTC


161700Z 1618/1703 24008KT 9999 SCT030
TEMPO 1618/1703 29015G25KT 3000 SHRA BKN020CB
No reported NOTAMs for that airfield.



MET'MAP, your aeronautical weather chart ! - Copyright ORBIFLY December 2007 - Disclaimer

ORBIFLY MET'MAP TEAM :

Programming & Development : Alexandra Zaïnal
Concept & Development : Baudouin d'Aumeries
Co-Development & Prog : Marc-Olivier Méhu
Technical & hardware support : Manuel Goepfert

Contact : metmap@orbifly.com




SOURCES & CREDITS :

   NOAA